Time;durP1;ratioP1;P1;durP2;ratioP2;P2;SDS_P1;SDS_P2;PMS_P1;PMS_P2;Temp;Humidity;BMP_temperature;BMP_pressure;BME280_temperature;BME280_humidity;BME280_pressure;Samples;Min_cycle;Max_cycle;Signal;HPM_P1;HPM_P2
2023/01/11 00:00:48;;;;;;;12.63;5.90;;;;;;;7.88;100.00;100720.31;5072091;28;20028;-76
2023/01/11 00:03:14;;;;;;;11.43;6.18;;;;;;;7.90;100.00;100722.00;5069695;28;20100;-76
2023/01/11 00:05:41;;;;;;;9.02;5.65;;;;;;;7.91;100.00;100712.47;5068615;28;20082;-76
2023/01/11 00:08:07;;;;;;;11.68;5.22;;;;;;;7.87;100.00;100698.69;5071985;28;20107;-77
2023/01/11 00:10:32;;;;;;;11.35;5.50;;;;;;;7.92;100.00;100715.06;5071211;28;20139;-76
2023/01/11 00:12:59;;;;;;;9.68;5.47;;;;;;;7.94;100.00;100712.44;5071190;28;20024;-77
2023/01/11 00:15:25;;;;;;;7.30;5.07;;;;;;;7.95;100.00;100704.66;5071431;28;20097;-76
2023/01/11 00:17:50;;;;;;;12.00;4.97;;;;;;;7.99;100.00;100715.84;5061877;28;20028;-76
2023/01/11 00:20:16;;;;;;;9.25;4.90;;;;;;;7.98;100.00;100699.41;5070392;28;20456;-76
2023/01/11 00:22:42;;;;;;;9.63;5.00;;;;;;;7.96;100.00;100690.78;5069706;28;20036;-76
2023/01/11 00:25:07;;;;;;;9.15;4.47;;;;;;;8.02;100.00;100696.78;5065334;28;20029;-76
2023/01/11 00:27:33;;;;;;;8.82;4.90;;;;;;;8.01;100.00;100690.72;5072339;28;20074;-77
2023/01/11 00:29:58;;;;;;;6.05;4.22;;;;;;;8.01;100.00;100690.72;5074510;28;20066;-76
2023/01/11 00:32:23;;;;;;;8.73;4.80;;;;;;;7.96;100.00;100679.53;5073945;28;20025;-76
2023/01/11 00:34:48;;;;;;;9.20;4.47;;;;;;;8.07;100.00;100692.34;5073399;28;20033;-77
2023/01/11 00:37:14;;;;;;;10.40;4.30;;;;;;;8.03;100.00;100681.16;5072653;28;20020;-76
2023/01/11 00:39:39;;;;;;;11.75;4.50;;;;;;;8.07;100.00;100680.22;5073208;28;20112;-76
2023/01/11 00:50:16;;;;;;;7.43;3.95;;;;;;;8.17;100.00;100686.13;5070781;28;19918;-76
2023/01/11 00:52:42;;;;;;;8.23;4.35;;;;;;;8.17;100.00;100681.81;5063105;28;20041;-76
2023/01/11 00:55:08;;;;;;;9.23;5.28;;;;;;;8.17;100.00;100679.22;5072771;28;20062;-76
2023/01/11 00:57:33;;;;;;;7.13;4.70;;;;;;;8.23;100.00;100682.56;5074620;28;20483;-76
2023/01/11 00:59:59;;;;;;;9.77;4.55;;;;;;;8.15;100.00;100667.97;5074821;28;20095;-76
2023/01/11 01:02:24;;;;;;;11.85;5.10;;;;;;;8.27;100.00;100676.44;5071908;28;20017;-76
2023/01/11 01:04:50;;;;;;;11.45;5.25;;;;;;;8.24;100.00;100674.78;5074224;28;20082;-76
2023/01/11 01:07:15;;;;;;;8.35;5.18;;;;;;;8.28;100.00;100670.38;5074129;28;20089;-76
2023/01/11 01:09:40;;;;;;;9.25;5.32;;;;;;;8.29;100.00;100654.75;5073964;28;20024;-76
2023/01/11 01:12:08;;;;;;;9.57;5.13;;;;;;;8.29;100.00;100664.31;5073967;28;20036;-76
2023/01/11 01:14:33;;;;;;;11.50;5.45;;;;;;;8.37;100.00;100675.41;5074374;28;20036;-76
2023/01/11 01:17:06;;;;;;;12.15;5.50;;;;;;;8.40;100.00;100671.06;5073541;28;20024;-76
2023/01/11 01:19:33;;;;;;;10.95;6.18;;;;;;;8.36;100.00;100669.34;5073990;28;20036;-76
2023/01/11 01:21:59;;;;;;;10.40;5.60;;;;;;;8.44;100.00;100671.88;5073626;28;20025;-76
2023/01/11 01:24:27;;;;;;;11.93;5.95;;;;;;;8.49;100.00;100669.19;5073860;28;20365;-77
2023/01/11 01:26:53;;;;;;;12.15;5.90;;;;;;;8.48;100.00;100668.34;5074446;28;20086;-76
2023/01/11 01:29:18;;;;;;;12.65;6.57;;;;;;;8.42;100.00;100658.91;5072496;28;20468;-77
2023/01/11 01:31:43;;;;;;;12.60;5.78;;;;;;;8.51;100.00;100664.81;5074164;28;20108;-76
2023/01/11 01:34:09;;;;;;;11.15;6.95;;;;;;;8.57;100.00;100682.91;5073260;28;20118;-76
2023/01/11 01:36:35;;;;;;;12.68;6.35;;;;;;;8.61;100.00;100669.81;5073286;28;20032;-77
2023/01/11 01:39:02;;;;;;;13.10;6.45;;;;;;;8.66;100.00;100673.22;5062825;28;20067;-77
2023/01/11 01:41:27;;;;;;;13.88;6.65;;;;;;;8.68;100.00;100661.03;5072024;28;20046;-77
2023/01/11 01:43:54;;;;;;;12.68;6.90;;;;;;;8.71;100.00;100680.06;5073085;28;20447;-77
2023/01/11 01:46:21;;;;;;;11.18;6.70;;;;;;;8.73;100.00;100673.06;5072972;28;20032;-77
2023/01/11 01:49:14;;;;;;;16.20;7.15;;;;;;;8.72;100.00;100676.56;5072905;28;20020;-77
2023/01/11 01:51:48;;;;;;;11.45;6.60;;;;;;;8.76;100.00;100668.66;5065908;28;20037;-77
2023/01/11 01:54:18;;;;;;;10.35;6.18;;;;;;;8.67;100.00;100659.31;5058094;28;20107;-77
2023/01/11 01:56:55;;;;;;;16.60;7.20;;;;;;;8.82;100.00;100667.69;5073301;28;20077;-77
2023/01/11 01:59:24;;;;;;;12.32;6.38;;;;;;;8.83;100.00;100665.09;5064073;28;20025;-78
2023/01/11 02:01:51;;;;;;;13.40;6.10;;;;;;;8.86;100.00;100659.84;5071832;28;20048;-78
2023/01/11 02:04:26;;;;;;;13.98;6.43;;;;;;;8.86;100.00;100662.44;5072054;28;20055;-77
2023/01/11 02:06:57;;;;;;;13.68;6.15;;;;;;;8.89;100.00;100667.56;5073208;28;20495;-77
2023/01/11 02:09:37;;;;;;;14.55;6.68;;;;;;;8.88;100.00;100667.59;5059555;28;20020;-77
2023/01/11 02:12:05;;;;;;;12.20;6.20;;;;;;;8.93;100.00;100670.97;5059314;28;20036;-77
2023/01/11 02:14:31;;;;;;;11.00;5.93;;;;;;;8.85;100.00;100652.06;5071985;28;20052;-77
2023/01/11 02:16:56;;;;;;;12.93;6.85;;;;;;;8.84;100.00;100652.94;5073041;28;20375;-78
2023/01/11 02:19:40;;;;;;;15.10;6.55;;;;;;;8.95;100.00;100661.38;5071739;28;20456;-77
2023/01/11 02:22:57;;;;;;;16.55;6.40;;;;;;;9.00;100.00;100666.50;5072789;28;20422;-78
2023/01/11 02:25:49;;;;;;;10.30;5.60;;;;;;;9.02;100.00;100664.72;5019479;28;20047;-78
2023/01/11 02:28:23;;;;;;;10.32;5.45;;;;;;;9.05;100.00;100660.31;5060487;28;20028;-78
2023/01/11 02:31:21;;;;;;;7.65;5.65;;;;;;;9.04;100.00;100661.19;5072968;28;20372;-78
2023/01/11 02:34:16;;;;;;;10.60;5.63;;;;;;;9.09;100.00;100674.09;5072071;28;20032;-79
2023/01/11 02:37:07;;;;;;;11.27;5.80;;;;;;;9.09;100.00;100654.19;5059999;28;20035;-78
2023/01/11 02:39:56;;;;;;;10.07;5.32;;;;;;;9.03;100.00;100646.50;5071872;28;20029;-78
2023/01/11 02:45:55;;;;;;;7.38;4.65;;;;;;;9.13;100.00;100648.03;5071520;28;20066;-78
2023/01/11 02:48:49;;;;;;;10.30;4.88;;;;;;;9.14;100.00;100652.31;5040053;28;20131;-79
2023/01/11 02:51:37;;;;;;;7.13;4.72;;;;;;;9.19;100.00;100646.16;5072032;28;20108;-79
2023/01/11 02:54:09;;;;;;;9.38;5.03;;;;;;;9.19;100.00;100633.16;5066762;28;20549;-79
2023/01/11 02:56:39;;;;;;;9.95;4.82;;;;;;;9.17;100.00;100637.56;5071411;28;20052;-78
2023/01/11 02:59:09;;;;;;;7.20;5.10;;;;;;;9.24;100.00;100641.75;5069927;28;20038;-78
2023/01/11 03:01:46;;;;;;;8.40;5.03;;;;;;;9.27;100.00;100646.88;5070956;28;20145;-78
2023/01/11 03:04:31;;;;;;;8.93;5.05;;;;;;;9.27;100.00;100644.28;5067622;28;20098;-78
2023/01/11 03:07:24;;;;;;;9.50;5.00;;;;;;;9.25;100.00;100635.63;5067547;28;20473;-78
2023/01/11 03:10:11;;;;;;;9.57;5.30;;;;;;;9.29;100.00;100645.09;5067589;28;20544;-78
2023/01/11 03:12:54;;;;;;;9.43;4.68;;;;;;;9.30;100.00;100633.81;5067588;28;20032;-78
2023/01/11 03:15:32;;;;;;;7.82;4.50;;;;;;;9.29;100.00;100630.34;5058050;28;20433;-79
2023/01/11 03:18:14;;;;;;;7.93;4.72;;;;;;;9.29;100.00;100632.97;5072292;28;20031;-79
2023/01/11 03:20:46;;;;;;;7.97;4.60;;;;;;;9.33;100.00;100638.94;5072410;28;20024;-78
2023/01/11 03:23:29;;;;;;;12.40;5.10;;;;;;;9.37;100.00;100640.59;5071078;28;20074;-79
2023/01/11 03:26:02;;;;;;;8.02;4.05;;;;;;;9.34;100.00;100632.84;5072106;28;20059;-78
2023/01/11 03:28:35;;;;;;;8.30;4.40;;;;;;;9.40;100.00;100634.47;5070796;28;20103;-78
2023/01/11 03:31:14;;;;;;;11.27;4.35;;;;;;;9.34;100.00;100630.25;5072262;28;20029;-78
2023/01/11 03:33:50;;;;;;;5.63;4.28;;;;;;;9.38;100.00;100637.06;5071775;28;20391;-78
2023/01/11 03:36:26;;;;;;;7.88;4.05;;;;;;;9.36;100.00;100628.47;5071188;28;20031;-78
2023/01/11 03:39:26;;;;;;;5.57;3.75;;;;;;;9.38;100.00;100643.16;5069868;28;20029;-80
2023/01/11 03:41:56;;;;;;;10.02;4.10;;;;;;;9.36;100.00;100631.94;5035499;28;20041;-78
2023/01/11 03:44:25;;;;;;;8.07;3.88;;;;;;;9.37;100.00;100623.22;5057678;28;20029;-78
2023/01/11 03:46:58;;;;;;;7.00;4.05;;;;;;;9.38;100.00;100632.75;5069282;28;20123;-78
2023/01/11 03:49:31;;;;;;;6.43;3.65;;;;;;;9.37;100.00;100622.38;5064755;28;20082;-79
2023/01/11 03:52:01;;;;;;;7.20;3.70;;;;;;;9.43;100.00;100632.66;5069193;28;20037;-79
2023/01/11 03:54:28;;;;;;;11.05;3.78;;;;;;;9.44;100.00;100623.94;5058321;28;20074;-79
2023/01/11 03:57:03;;;;;;;5.40;3.63;;;;;;;9.48;100.00;100638.63;5071701;28;20399;-79
2023/01/11 03:59:28;;;;;;;6.30;3.67;;;;;;;9.48;100.00;100630.81;5075613;28;20024;-79
2023/01/11 04:01:55;;;;;;;5.65;3.80;;;;;;;9.47;100.00;100642.09;5074700;28;20344;-78
2023/01/11 04:04:20;;;;;;;5.50;3.47;;;;;;;9.52;100.00;100642.00;5072654;28;20086;-78
2023/01/11 04:06:46;;;;;;;6.15;3.60;;;;;;;9.51;100.00;100648.06;5073636;28;20464;-78
2023/01/11 04:09:11;;;;;;;7.18;3.67;;;;;;;9.55;100.00;100642.78;5073699;28;20365;-78
2023/01/11 04:11:36;;;;;;;6.28;4.35;;;;;;;9.57;100.00;100638.38;5073989;28;20119;-78
2023/01/11 04:14:01;;;;;;;8.75;5.07;;;;;;;9.53;100.00;100630.69;5074959;28;20025;-78
2023/01/11 04:16:27;;;;;;;8.27;5.05;;;;;;;9.58;100.00;100641.84;5073360;28;20106;-77
2023/01/11 04:18:52;;;;;;;9.18;5.45;;;;;;;9.62;100.00;100653.91;5074153;28;20074;-78
2023/01/11 04:21:18;;;;;;;11.23;6.00;;;;;;;9.61;100.00;100649.59;5074184;28;20024;-78
2023/01/11 04:23:43;;;;;;;10.70;5.88;;;;;;;9.56;100.00;100654.91;5073574;28;20529;-78
2023/01/11 04:26:08;;;;;;;13.15;6.57;;;;;;;9.59;100.00;100643.56;5071301;28;20063;-78
2023/01/11 04:28:34;;;;;;;10.90;6.32;;;;;;;9.64;100.00;100646.91;5074573;28;20032;-78
2023/01/11 04:30:59;;;;;;;15.38;6.72;;;;;;;9.60;100.00;100646.13;5073989;28;20037;-77
2023/01/11 04:33:24;;;;;;;12.45;7.15;;;;;;;9.72;100.00;100658.03;5072311;28;20116;-78
2023/01/11 04:35:49;;;;;;;13.15;7.25;;;;;;;9.68;100.00;100659.00;5074067;28;20392;-78
2023/01/11 04:38:15;;;;;;;13.88;7.15;;;;;;;9.70;100.00;100656.34;5072711;28;20041;-78
2023/01/11 04:40:41;;;;;;;11.10;6.60;;;;;;;9.68;100.00;100665.91;5072878;28;20024;-78
2023/01/11 04:43:06;;;;;;;13.05;6.95;;;;;;;9.71;100.00;100671.06;5073923;28;20024;-78
2023/01/11 04:45:32;;;;;;;12.60;6.95;;;;;;;9.71;100.00;100677.16;5073261;28;20028;-78
2023/01/11 04:47:57;;;;;;;11.77;6.95;;;;;;;9.75;100.00;100680.53;5073511;28;20027;-78
2023/01/11 04:50:23;;;;;;;16.92;6.60;;;;;;;9.68;100.00;100668.53;5063729;28;20025;-78
2023/01/11 04:52:49;;;;;;;11.30;6.30;;;;;;;9.71;100.00;100681.47;5071751;28;20036;-78
2023/01/11 04:55:14;;;;;;;9.38;5.80;;;;;;;9.71;100.00;100686.69;5074101;28;20509;-78
2023/01/11 04:57:40;;;;;;;8.40;5.63;;;;;;;9.80;100.00;100686.47;5074781;28;20035;-78
2023/01/11 05:00:09;;;;;;;10.05;5.25;;;;;;;9.75;100.00;100673.56;5073790;28;20379;-78
2023/01/11 05:02:39;;;;;;;10.45;5.38;;;;;;;9.77;100.00;100670.91;5074932;28;20044;-78
2023/01/11 05:05:05;;;;;;;9.13;4.75;;;;;;;9.73;100.00;100677.94;5072954;28;20042;-78
2023/01/11 05:07:31;;;;;;;6.60;4.65;;;;;;;9.75;100.00;100677.94;5071673;28;20028;-78
2023/01/11 05:09:57;;;;;;;11.88;4.15;;;;;;;9.64;100.00;100670.34;5067247;28;20075;-78
2023/01/11 05:12:22;;;;;;;7.43;4.40;;;;;;;9.76;100.00;100690.03;5066932;28;20029;-78
2023/01/11 05:14:47;;;;;;;5.40;3.33;;;;;;;9.69;100.00;100672.84;5073748;28;20031;-77
2023/01/11 05:17:14;;;;;;;5.45;3.75;;;;;;;9.78;100.00;100685.66;5073969;28;20048;-78
2023/01/11 05:19:40;;;;;;;8.25;3.42;;;;;;;9.76;100.00;100684.84;5074499;28;20052;-78
2023/01/11 05:22:05;;;;;;;5.28;3.70;;;;;;;9.73;100.00;100688.34;5073656;28;20522;-78
2023/01/11 05:24:31;;;;;;;7.32;3.72;;;;;;;9.75;100.00;100703.97;5071998;28;20476;-78
2023/01/11 05:26:56;;;;;;;9.88;4.25;;;;;;;9.72;100.00;100694.47;5073831;28;20032;-78
2023/01/11 05:29:21;;;;;;;11.80;5.03;;;;;;;9.72;100.00;100694.47;5072770;28;20032;-78
2023/01/11 05:31:47;;;;;;;11.13;5.90;;;;;;;9.71;100.00;100705.78;5074191;28;20025;-77
2023/01/11 05:34:14;;;;;;;16.63;7.45;;;;;;;9.71;100.00;100707.50;5073837;28;20020;-78
2023/01/11 05:36:40;;;;;;;18.33;7.90;;;;;;;9.60;100.00;100690.38;5073397;28;20051;-78
2023/01/11 05:39:06;;;;;;;16.70;7.70;;;;;;;9.59;100.00;100693.03;5073954;28;20472;-78
2023/01/11 05:41:32;;;;;;;20.90;8.32;;;;;;;9.53;100.00;100699.22;5073270;28;20056;-78
2023/01/11 05:46:43;;;;;;;19.67;9.57;;;;;;;9.60;100.00;100716.41;5073651;28;20074;-78
2023/01/11 05:49:10;;;;;;;22.40;9.82;;;;;;;9.57;100.00;100713.88;5071039;28;20029;-78
2023/01/11 05:51:37;;;;;;;22.90;10.45;;;;;;;9.56;100.00;100703.50;5070615;28;20031;-78
2023/01/11 05:54:03;;;;;;;21.67;10.05;;;;;;;9.60;100.00;100711.19;5069488;28;20025;-78
2023/01/11 05:56:29;;;;;;;19.92;9.80;;;;;;;9.60;100.00;100711.19;5070417;28;20040;-78
2023/01/11 05:58:55;;;;;;;22.25;10.65;;;;;;;9.55;100.00;100701.78;5069766;28;20586;-77
2023/01/11 06:01:21;;;;;;;23.30;10.93;;;;;;;9.64;100.00;100716.34;5072413;28;20130;-78
2023/01/11 06:03:47;;;;;;;24.17;11.50;;;;;;;9.63;100.00;100735.47;5061922;28;20021;-78
2023/01/11 06:06:13;;;;;;;25.63;11.52;;;;;;;9.63;100.00;100738.91;5072680;28;20474;-78
2023/01/11 06:08:39;;;;;;;27.30;11.73;;;;;;;9.56;100.00;100738.19;5073045;28;20028;-77
2023/01/11 06:11:04;;;;;;;30.02;10.32;;;;;;;9.42;100.00;100727.22;5072186;28;20037;-78
2023/01/11 06:13:30;;;;;;;26.65;7.75;;;;;;;9.29;100.00;100730.97;5071717;28;20495;-78
2023/01/11 06:16:08;;;;;;;20.33;7.57;;;;;;;9.22;100.00;100750.16;5070257;28;20388;-78
2023/01/11 06:18:38;;;;;;;22.13;6.35;;;;;;;9.08;100.00;100748.66;5065291;28;20107;-78
2023/01/11 06:21:04;;;;;;;23.60;6.03;;;;;;;8.94;100.00;100744.63;5072829;28;20016;-78
2023/01/11 06:23:31;;;;;;;19.67;6.03;;;;;;;8.84;100.00;100739.59;5062000;28;20104;-77
2023/01/11 06:26:01;;;;;;;20.23;5.65;;;;;;;8.88;100.00;100758.59;5072332;28;20029;-77
2023/01/11 06:28:26;;;;;;;21.15;5.65;;;;;;;8.77;100.00;100747.53;5072756;28;20021;-77
2023/01/11 06:30:55;;;;;;;20.45;5.70;;;;;;;8.77;100.00;100753.59;5072831;28;20035;-77
2023/01/11 06:33:22;;;;;;;15.80;5.22;;;;;;;8.72;100.00;100770.13;5071851;28;20020;-77
2023/01/11 06:35:48;;;;;;;24.60;6.00;;;;;;;8.68;100.00;100761.53;5069514;28;20024;-77
2023/01/11 06:38:15;;;;;;;20.88;5.25;;;;;;;8.66;100.00;100787.56;5071614;28;20097;-77
2023/01/11 06:40:40;;;;;;;28.45;5.75;;;;;;;8.62;100.00;100796.25;5073085;28;20028;-77
2023/01/11 06:43:06;;;;;;;25.83;5.15;;;;;;;8.65;100.00;100795.38;5072895;28;20456;-78
2023/01/11 06:45:32;;;;;;;25.05;5.40;;;;;;;8.63;100.00;100792.81;5071564;28;20017;-77
2023/01/11 06:47:58;;;;;;;19.15;5.07;;;;;;;8.59;100.00;100803.25;5072862;28;20020;-77
2023/01/11 06:50:24;;;;;;;23.02;5.80;;;;;;;8.62;100.00;100808.41;5072228;28;20024;-77
2023/01/11 06:52:54;;;;;;;28.67;5.60;;;;;;;8.56;100.00;100822.34;5064065;28;20068;-77
2023/01/11 06:55:20;;;;;;;25.30;5.88;;;;;;;8.58;100.00;100831.00;5068803;28;20143;-77
2023/01/11 06:57:46;;;;;;;27.30;5.57;;;;;;;8.54;100.00;100820.69;5072654;28;20070;-77
2023/01/11 07:00:11;;;;;;;32.13;5.38;;;;;;;8.55;100.00;100822.38;5071255;28;20036;-77
2023/01/11 07:02:37;;;;;;;29.15;6.03;;;;;;;8.52;100.00;100825.03;5072330;28;20028;-77
2023/01/11 07:05:02;;;;;;;28.55;5.32;;;;;;;8.49;100.00;100828.53;5072443;28;20052;-78
2023/01/11 07:07:27;;;;;;;27.20;5.88;;;;;;;8.44;100.00;100817.34;5071027;28;20501;-78
2023/01/11 07:09:53;;;;;;;31.13;5.50;;;;;;;8.41;100.00;100822.59;5072011;28;20028;-77
2023/01/11 07:12:19;;;;;;;33.47;5.53;;;;;;;8.37;100.00;100833.84;5066374;28;20025;-77
2023/01/11 07:14:44;;;;;;;33.92;5.22;;;;;;;8.36;100.00;100830.41;5071529;28;20529;-77
2023/01/11 07:17:09;;;;;;;29.25;5.03;;;;;;;8.32;100.00;100844.31;5069452;28;20024;-77
2023/01/11 07:19:35;;;;;;;31.60;5.38;;;;;;;8.31;100.00;100859.94;5069575;28;20037;-77
2023/01/11 07:22:00;;;;;;;36.17;5.75;;;;;;;8.25;100.00;100857.44;5068816;28;20029;-77
2023/01/11 07:24:25;;;;;;;34.45;5.55;;;;;;;8.23;100.00;100861.78;5068818;28;20487;-77
2023/01/11 07:26:52;;;;;;;27.63;5.15;;;;;;;8.21;100.00;100870.47;5070629;28;20021;-77
2023/01/11 07:29:17;;;;;;;27.92;4.65;;;;;;;8.09;100.00;100862.81;5054536;28;20020;-77
2023/01/11 07:31:42;;;;;;;30.25;5.15;;;;;;;8.11;100.00;100868.88;5075019;28;20162;-77
2023/01/11 07:34:08;;;;;;;38.13;5.40;;;;;;;8.09;100.00;100872.34;5074103;28;20023;-77
2023/01/11 07:36:38;;;;;;;34.55;4.95;;;;;;;8.04;100.00;100871.53;5077600;28;20025;-78
2023/01/11 07:39:04;;;;;;;24.10;4.45;;;;;;;8.00;100.00;100891.50;5069076;28;20016;-77
2023/01/11 07:44:13;;;;;;;;;;;;;;;8.06;100.00;100901.81;5073742;28;20055;-78
2023/01/11 07:46:38;;;;;;;36.88;4.72;;;;;;;7.93;100.00;100895.91;5071446;28;20372;-77
2023/01/11 07:49:04;;;;;;;40.03;5.15;;;;;;;7.88;100.00;100902.91;5080653;28;20426;-77
2023/01/11 07:51:29;;;;;;;31.88;5.07;;;;;;;7.82;100.00;100907.28;5078503;28;20036;-78
2023/01/11 07:53:54;;;;;;;34.63;5.07;;;;;;;7.80;100.00;100911.63;5074657;28;20117;-78
2023/01/11 07:56:20;;;;;;;32.83;5.03;;;;;;;7.76;100.00;100918.59;5075893;28;20024;-77
2023/01/11 07:58:45;;;;;;;32.05;4.70;;;;;;;7.73;100.00;100924.66;5074414;28;20029;-77
2023/01/11 08:01:10;;;;;;;33.35;4.57;;;;;;;7.67;100.00;100924.72;5076240;28;20590;-78
2023/01/11 08:03:36;;;;;;;34.58;5.10;;;;;;;7.65;100.00;100923.91;5074139;28;20029;-78
2023/01/11 08:06:01;;;;;;;32.60;5.30;;;;;;;7.61;100.00;100929.97;5077486;28;20038;-78
2023/01/11 08:08:26;;;;;;;30.13;4.60;;;;;;;7.63;100.00;100936.03;5076688;28;20062;-78
2023/01/11 08:16:19;;;;;;;30.48;5.53;;;;;;;7.53;100.00;100939.59;5077194;28;20027;-78
2023/01/11 08:18:44;;;;;;;26.02;4.82;;;;;;;7.51;100.00;100951.69;5073297;28;20028;-78
2023/01/11 08:21:10;;;;;;;31.27;4.82;;;;;;;7.49;100.00;100967.28;5076184;28;20044;-78
2023/01/11 08:23:35;;;;;;;36.25;6.20;;;;;;;7.49;100.00;100979.41;5075844;28;20103;-78
2023/01/11 08:26:01;;;;;;;27.90;5.10;;;;;;;7.46;100.00;100984.63;5076338;28;20032;-78
2023/01/11 08:28:26;;;;;;;34.33;5.25;;;;;;;7.45;100.00;101003.63;5075256;28;20028;-78
2023/01/11 08:30:51;;;;;;;24.83;5.22;;;;;;;7.39;100.00;100996.78;5076421;28;20468;-78
2023/01/11 08:33:17;;;;;;;31.55;5.25;;;;;;;7.40;100.00;101005.41;5074477;28;20074;-78
2023/01/11 08:35:42;;;;;;;29.45;4.57;;;;;;;7.36;100.00;101001.13;5077116;28;20402;-78
2023/01/11 08:38:07;;;;;;;23.67;4.57;;;;;;;7.36;100.00;101008.91;5075073;28;20032;-79
2023/01/11 08:40:33;;;;;;;29.58;5.07;;;;;;;7.37;100.00;101018.41;5077100;28;20471;-78
2023/01/11 08:42:58;;;;;;;33.08;5.32;;;;;;;7.27;100.00;101010.69;5073701;28;20443;-79
2023/01/11 08:45:24;;;;;;;27.70;4.50;;;;;;;7.30;100.00;101016.72;5072296;28;20036;-79
2023/01/11 08:47:50;;;;;;;28.23;4.60;;;;;;;7.24;100.00;101015.88;5071412;28;20024;-78
2023/01/11 08:50:17;;;;;;;31.60;4.88;;;;;;;7.23;100.00;101024.56;5073382;28;20051;-78
2023/01/11 08:52:42;;;;;;;25.92;4.78;;;;;;;7.19;100.00;101019.38;5032044;28;1051987;-78
2023/01/11 08:55:08;;;;;;;24.83;3.90;;;;;;;7.24;100.00;101036.63;5068642;28;20123;-78
2023/01/11 08:57:35;;;;;;;29.70;4.50;;;;;;;7.23;100.00;101039.25;5067166;28;20031;-78
2023/01/11 09:00:03;;;;;;;22.65;4.05;;;;;;;7.14;100.00;101039.31;5067171;28;20025;-78
2023/01/11 09:02:28;;;;;;;31.33;4.50;;;;;;;7.19;100.00;101053.09;5074138;28;20024;-78
2023/01/11 09:04:53;;;;;;;29.65;5.40;;;;;;;7.17;100.00;101045.34;5073478;28;20035;-78
2023/01/11 09:07:19;;;;;;;28.17;4.22;;;;;;;7.14;100.00;101055.72;5071267;28;20033;-78
2023/01/11 09:09:44;;;;;;;25.98;3.90;;;;;;;7.07;100.00;101048.84;5072933;28;20609;-78
2023/01/11 09:12:09;;;;;;;35.58;3.97;;;;;;;7.05;100.00;101050.59;5072610;28;20025;-78
2023/01/11 09:14:35;;;;;;;22.20;4.25;;;;;;;7.05;100.00;101055.75;5073508;28;20050;-78
2023/01/11 09:17:00;;;;;;;31.27;4.25;;;;;;;7.08;100.00;101067.84;5074483;28;20024;-78
2023/01/11 09:19:25;;;;;;;26.48;4.03;;;;;;;7.04;100.00;101072.19;5074035;28;20052;-78
2023/01/11 09:21:52;;;;;;;28.00;4.35;;;;;;;7.03;100.00;101073.94;5073700;28;20372;-78
2023/01/11 09:24:17;;;;;;;23.00;4.38;;;;;;;7.02;100.00;101069.59;5073763;28;20029;-78
2023/01/11 09:26:42;;;;;;;22.85;4.13;;;;;;;6.99;100.00;101076.53;5073655;28;20029;-78
2023/01/11 09:29:09;;;;;;;23.45;4.28;;;;;;;6.94;100.00;101071.38;5073381;28;20399;-78
2023/01/11 09:31:34;;;;;;;22.77;3.92;;;;;;;6.91;100.00;101074.00;5073795;28;20037;-78
2023/01/11 09:34:00;;;;;;;23.00;4.03;;;;;;;6.94;100.00;101088.66;5073898;28;20059;-78
2023/01/11 09:36:26;;;;;;;25.42;4.07;;;;;;;6.92;100.00;101080.88;5073134;28;20383;-78
2023/01/11 09:38:55;;;;;;;25.45;3.85;;;;;;;6.91;100.00;101086.09;5073768;28;20025;-79
2023/01/11 09:41:32;;;;;;;27.15;4.03;;;;;;;6.92;100.00;101088.66;5072454;28;20044;-78
2023/01/11 09:44:13;;;;;;;23.25;4.05;;;;;;;6.97;100.00;101086.06;5060617;28;20476;-78
2023/01/11 09:46:41;;;;;;;21.27;3.22;;;;;;;7.00;100.00;101092.09;5071443;28;20207;-78
2023/01/11 09:49:15;;;;;;;24.48;3.33;;;;;;;6.97;100.00;101089.50;5072950;28;20036;-78
2023/01/11 09:51:40;;;;;;;;;;;;;;;7.01;100.00;101095.53;5073886;28;20024;-78
2023/01/11 09:54:14;;;;;;;27.38;4.22;;;;;;;7.00;100.00;101097.28;5064756;28;19916;-79
2023/01/11 09:56:46;;;;;;;;;;;;;;;7.02;100.00;101110.22;5073541;28;20032;-78
2023/01/11 09:59:25;;;;;;;28.00;3.97;;;;;;;7.00;100.00;101109.38;5059450;28;19916;-78
2023/01/11 10:02:00;;;;;;;20.48;4.03;;;;;;;7.09;100.00;101109.31;5073333;28;20138;-78
2023/01/11 10:05:09;;;;;;;21.58;3.72;;;;;;;7.11;100.00;101117.97;5072282;28;20016;-78
2023/01/11 10:08:04;;;;;;;26.92;4.22;;;;;;;7.15;100.00;101122.25;5048480;28;20075;-77
2023/01/11 10:10:54;;;;;;;19.83;4.15;;;;;;;7.17;100.00;101112.75;5066483;28;20142;-77
2023/01/11 10:13:46;;;;;;;18.73;3.25;;;;;;;7.29;100.00;101119.59;5068325;28;20036;-77
2023/01/11 10:16:31;;;;;;;21.20;3.97;;;;;;;7.25;100.00;101103.19;5067729;28;20033;-77
2023/01/11 10:19:15;;;;;;;31.08;3.92;;;;;;;7.36;100.00;101117.84;5073289;28;20036;-77
2023/01/11 10:21:53;;;;;;;18.15;3.38;;;;;;;7.43;100.00;101129.91;5072341;28;20378;-77
2023/01/11 10:24:21;;;;;;;22.52;5.50;;;;;;;7.50;100.00;101127.25;5070940;28;20021;-77
2023/01/11 10:26:50;;;;;;;20.20;4.20;;;;;;;7.62;100.00;101113.34;5072767;28;20032;-77
2023/01/11 10:29:29;;;;;;;23.40;4.63;;;;;;;7.70;100.00;101108.94;5072291;28;20021;-77
2023/01/11 10:32:21;;;;;;;17.48;4.63;;;;;;;7.84;100.00;101105.38;5072265;28;20028;-77
2023/01/11 10:34:59;;;;;;;24.50;4.25;;;;;;;7.86;100.00;101122.69;5072164;28;20043;-77
2023/01/11 10:43:21;;;;;;;17.33;3.95;;;;;;;7.78;100.00;101126.19;5064518;28;20043;-78
2023/01/11 10:46:10;;;;;;;22.13;4.25;;;;;;;7.79;100.00;101133.13;5055834;28;20123;-78
2023/01/11 10:48:44;;;;;;;18.63;4.40;;;;;;;7.78;100.00;101132.25;5069739;28;20027;-78
2023/01/11 10:51:33;;;;;;;20.15;3.58;;;;;;;7.79;100.00;101127.94;5070075;28;20422;-78
2023/01/11 10:54:12;;;;;;;21.65;4.75;;;;;;;7.70;100.00;101111.53;5069043;28;20039;-78
2023/01/11 10:57:07;;;;;;;20.27;4.07;;;;;;;7.78;100.00;101121.84;5067352;28;20029;-78
2023/01/11 10:59:52;;;;;;;15.00;3.70;;;;;;;7.73;100.00;101114.13;5068970;28;20025;-77
2023/01/11 11:02:20;;;;;;;20.20;3.88;;;;;;;7.74;100.00;101115.84;5068366;28;20032;-79
2023/01/11 11:05:00;;;;;;;20.52;4.20;;;;;;;7.72;100.00;101112.41;5069274;28;20473;-78
2023/01/11 11:07:37;;;;;;;19.55;4.22;;;;;;;7.73;100.00;101110.66;5070407;28;20503;-79
2023/01/11 11:10:28;;;;;;;22.40;3.75;;;;;;;7.74;100.00;101123.63;5075965;28;20028;-78
2023/01/11 11:13:22;;;;;;;22.58;5.05;;;;;;;7.82;100.00;101130.50;5072029;28;20126;-78
2023/01/11 11:15:53;;;;;;;;;;;;;;;7.82;100.00;101130.50;5079481;28;20038;-78
2023/01/11 11:18:19;;;;;;;17.73;3.75;;;;;;;7.90;100.00;101119.19;5071534;28;19912;-78
2023/01/11 11:20:45;;;;;;;17.30;3.83;;;;;;;8.03;100.00;101121.69;5071283;28;20029;-78
2023/01/11 11:23:17;;;;;;;24.92;4.53;;;;;;;8.11;100.00;101119.84;5070220;28;20024;-75
2023/01/11 11:25:47;;;;;;;17.58;4.00;;;;;;;8.10;100.00;101119.00;5067976;28;20036;-79
2023/01/11 11:28:21;;;;;;;18.75;3.88;;;;;;;8.11;100.00;101122.47;5069535;28;20024;-79
2023/01/11 11:30:48;;;;;;;24.42;4.43;;;;;;;8.11;100.00;101130.25;5082770;28;20111;-79
2023/01/11 11:33:19;;;;;;;20.83;4.20;;;;;;;8.11;100.00;101122.47;5072607;28;20051;-79
2023/01/11 11:35:55;;;;;;;20.80;4.60;;;;;;;8.16;100.00;101126.75;5069697;28;20028;-79
2023/01/11 11:38:26;;;;;;;18.17;3.60;;;;;;;8.23;100.00;101132.75;5069526;28;20020;-79
2023/01/11 11:41:11;;;;;;;17.83;4.68;;;;;;;8.26;100.00;101148.31;5069738;28;20021;-79
2023/01/11 11:43:41;;;;;;;18.73;3.42;;;;;;;8.20;100.00;101135.38;5066530;28;20024;-78
2023/01/11 11:46:13;;;;;;;19.65;4.10;;;;;;;8.21;100.00;101135.38;5066887;28;20441;-79
2023/01/11 11:48:39;;;;;;;20.27;3.80;;;;;;;8.26;100.00;101144.84;5068968;28;20067;-79
2023/01/11 11:51:18;;;;;;;24.05;4.18;;;;;;;8.26;100.00;101137.91;5073290;28;20032;-79
2023/01/11 11:53:54;;;;;;;21.13;4.20;;;;;;;8.31;100.00;101146.53;5064700;28;20395;-79
2023/01/11 11:56:29;;;;;;;23.55;3.72;;;;;;;8.37;100.00;101156.88;5063907;28;20028;-79
2023/01/11 11:58:56;;;;;;;19.20;4.03;;;;;;;8.42;100.00;101147.31;5063716;28;20075;-79
2023/01/11 12:01:31;;;;;;;21.67;3.55;;;;;;;8.54;100.00;101155.88;5056202;28;20106;-79